createdAt,value
2022-11-28T00:02:37.853Z,11.40
2022-11-28T00:05:25.475Z,10.55
2022-11-28T00:08:12.736Z,7.90
2022-11-28T00:11:00.097Z,10.35
2022-11-28T00:13:48.804Z,9.77
2022-11-28T00:16:36.123Z,10.20
2022-11-28T00:19:23.294Z,10.55
2022-11-28T00:22:10.530Z,8.35
2022-11-28T00:24:57.805Z,10.88
2022-11-28T00:27:45.211Z,9.93
2022-11-28T00:30:36.995Z,13.13
2022-11-28T00:33:24.397Z,12.85
2022-11-28T00:36:11.929Z,11.13
2022-11-28T00:38:59.330Z,12.18
2022-11-28T00:41:46.582Z,12.90
2022-11-28T00:44:33.930Z,10.60
2022-11-28T00:47:22.687Z,10.15
2022-11-28T00:50:10.486Z,7.88
2022-11-28T00:52:57.423Z,11.15
2022-11-28T00:55:45.031Z,11.98
2022-11-28T00:58:32.739Z,9.75
2022-11-28T01:01:20.925Z,11.40
2022-11-28T01:04:11.041Z,10.77
2022-11-28T01:06:58.320Z,10.10
2022-11-28T01:09:45.329Z,10.93
2022-11-28T01:12:32.502Z,7.95
2022-11-28T01:15:21.588Z,12.02
2022-11-28T01:18:10.923Z,12.27
2022-11-28T01:21:01.868Z,10.57
2022-11-28T01:23:53.285Z,11.20
2022-11-28T01:26:43.393Z,13.57
2022-11-28T01:29:32.819Z,12.88
2022-11-28T01:32:22.699Z,11.07
2022-11-28T01:35:12.865Z,10.65
2022-11-28T01:38:03.701Z,11.02
2022-11-28T01:40:53.839Z,13.13
2022-11-28T01:43:56.608Z,13.57
2022-11-28T01:46:46.439Z,11.90
2022-11-28T01:49:38.312Z,15.63
2022-11-28T01:52:28.381Z,14.23
2022-11-28T01:55:21.111Z,12.82
2022-11-28T01:58:08.257Z,12.32
2022-11-28T02:00:56.233Z,15.73
2022-11-28T02:03:45.936Z,11.90
2022-11-28T02:06:36.183Z,15.00
2022-11-28T02:09:25.775Z,9.07
2022-11-28T02:12:20.787Z,11.02
2022-11-28T02:15:18.119Z,13.32
2022-11-28T02:18:14.063Z,11.93
2022-11-28T02:21:09.630Z,12.55
2022-11-28T02:24:21.271Z,11.68
2022-11-28T02:27:18.428Z,12.27
2022-11-28T02:30:19.470Z,13.27
2022-11-28T02:33:13.190Z,11.88
2022-11-28T02:36:06.267Z,13.98
2022-11-28T02:38:57.268Z,11.23
2022-11-28T02:41:46.448Z,11.25
2022-11-28T02:44:36.532Z,11.30
2022-11-28T02:47:27.040Z,15.18
2022-11-28T02:50:19.436Z,14.30
2022-11-28T02:53:08.628Z,14.43
2022-11-28T02:55:56.459Z,12.48
2022-11-28T02:58:43.376Z,12.23
2022-11-28T03:01:32.423Z,13.75
2022-11-28T03:04:25.146Z,9.65
2022-11-28T03:07:20.058Z,7.90
2022-11-28T03:10:11.803Z,13.25
2022-11-28T03:13:06.392Z,10.43
2022-11-28T03:15:56.925Z,9.98
2022-11-28T03:18:47.303Z,11.45
2022-11-28T03:21:40.103Z,10.05
2022-11-28T03:24:31.823Z,13.02
2022-11-28T03:27:20.179Z,16.00
2022-11-28T03:30:09.759Z,9.40
2022-11-28T03:32:57.678Z,11.52
2022-11-28T03:35:47.983Z,12.75
2022-11-28T03:38:37.570Z,13.00
2022-11-28T03:41:29.442Z,10.90
2022-11-28T03:44:18.591Z,11.60
2022-11-28T03:47:06.468Z,12.80
2022-11-28T03:49:55.939Z,14.70
2022-11-28T03:52:46.151Z,10.80
2022-11-28T03:55:36.532Z,12.68
2022-11-28T03:58:28.375Z,10.25
2022-11-28T04:01:19.354Z,13.23
2022-11-28T04:04:11.392Z,14.13
2022-11-28T04:07:00.332Z,13.93
2022-11-28T04:09:50.371Z,13.65
2022-11-28T04:12:41.238Z,15.20
2022-11-28T04:15:33.544Z,12.48
2022-11-28T04:18:22.191Z,12.35
2022-11-28T04:21:12.160Z,14.90
2022-11-28T04:24:01.728Z,18.02
2022-11-28T04:26:50.195Z,11.80
2022-11-28T04:29:40.120Z,13.10
2022-11-28T04:32:30.779Z,15.73
2022-11-28T04:35:20.213Z,14.10
2022-11-28T04:38:08.535Z,11.35
2022-11-28T04:40:58.277Z,13.77
2022-11-28T04:43:47.600Z,13.48
2022-11-28T04:46:38.906Z,15.23
2022-11-28T04:49:28.285Z,12.90
2022-11-28T04:52:17.453Z,14.82
2022-11-28T04:55:09.515Z,13.65
2022-11-28T04:58:00.026Z,12.20
2022-11-28T05:00:48.314Z,11.60
2022-11-28T05:03:39.915Z,12.88
2022-11-28T05:06:32.090Z,12.15
2022-11-28T05:09:19.021Z,14.25
2022-11-28T05:12:06.579Z,15.40
2022-11-28T05:14:53.574Z,15.25
2022-11-28T05:17:42.577Z,12.57
2022-11-28T05:20:30.435Z,15.23
2022-11-28T05:23:19.102Z,12.85
2022-11-28T05:26:07.255Z,13.52
2022-11-28T05:28:54.822Z,15.98
2022-11-28T05:31:41.907Z,14.10
2022-11-28T05:34:30.205Z,15.45
2022-11-28T05:37:17.515Z,15.20
2022-11-28T05:40:07.015Z,15.85
2022-11-28T05:42:54.409Z,14.45
2022-11-28T05:45:41.930Z,10.32
2022-11-28T05:48:29.247Z,15.35
2022-11-28T05:51:16.605Z,14.05
2022-11-28T05:54:04.097Z,13.77
2022-11-28T05:56:52.699Z,14.07
2022-11-28T05:59:40.251Z,11.13
2022-11-28T06:02:27.506Z,13.85
2022-11-28T06:05:40.289Z,16.33
2022-11-28T06:08:21.826Z,14.18
2022-11-28T06:11:09.674Z,14.85
2022-11-28T06:13:58.375Z,13.57
2022-11-28T06:16:45.754Z,11.75
2022-11-28T06:19:32.892Z,14.15
2022-11-28T06:22:20.233Z,12.75
2022-11-28T06:25:07.606Z,17.10
2022-11-28T06:27:54.884Z,15.93
2022-11-28T06:30:45.747Z,12.40
2022-11-28T06:33:32.721Z,12.55
2022-11-28T06:36:20.476Z,13.52
2022-11-28T06:39:07.732Z,11.90
2022-11-28T06:41:55.007Z,16.20
2022-11-28T06:44:42.352Z,13.63
2022-11-28T06:47:30.876Z,10.70
2022-11-28T06:50:18.184Z,14.10
2022-11-28T06:53:05.392Z,15.52
2022-11-28T06:55:52.775Z,16.63
2022-11-28T06:58:40.050Z,14.75
2022-11-28T07:01:29.012Z,13.05
2022-11-28T07:04:17.645Z,14.70
2022-11-28T07:07:05.074Z,13.18
2022-11-28T07:09:52.532Z,12.80
2022-11-28T07:12:39.939Z,13.93
2022-11-28T07:15:27.860Z,12.50
2022-11-28T07:18:14.911Z,17.23
2022-11-28T07:21:03.638Z,14.60
2022-11-28T07:23:51.006Z,15.63
2022-11-28T07:26:38.174Z,12.88
2022-11-28T07:29:30.759Z,13.40
2022-11-28T07:32:17.774Z,12.00
2022-11-28T07:35:07.769Z,10.85
2022-11-28T07:37:56.911Z,13.05
2022-11-28T07:40:43.915Z,11.77
2022-11-28T07:43:31.145Z,12.80
2022-11-28T07:46:19.644Z,15.30
2022-11-28T07:49:06.818Z,17.05
2022-11-28T07:51:54.087Z,13.00
2022-11-28T07:54:42.683Z,15.88
2022-11-28T07:57:30.667Z,13.45
2022-11-28T08:00:18.677Z,17.17
2022-11-28T08:03:05.853Z,17.95
2022-11-28T08:05:53.226Z,17.88
2022-11-28T08:08:40.600Z,16.38
2022-11-28T08:11:30.246Z,16.30
2022-11-28T08:14:17.395Z,13.82
2022-11-28T08:17:04.775Z,13.95
2022-11-28T08:19:51.882Z,19.15
2022-11-28T08:22:38.951Z,16.33
2022-11-28T08:25:26.364Z,19.75
2022-11-28T08:28:15.169Z,15.50
2022-11-28T08:31:09.319Z,15.30
2022-11-28T08:33:57.839Z,14.07
2022-11-28T08:36:44.776Z,14.52
2022-11-28T08:39:32.623Z,12.82
2022-11-28T08:42:20.103Z,16.35
2022-11-28T08:45:09.440Z,14.00
2022-11-28T08:47:56.849Z,16.25
2022-11-28T08:50:48.234Z,15.20
2022-11-28T08:53:35.779Z,13.07
2022-11-28T08:56:23.243Z,15.73
2022-11-28T08:59:10.716Z,13.40
2022-11-28T09:01:59.071Z,15.52
2022-11-28T09:04:46.313Z,15.27
2022-11-28T09:07:33.696Z,17.35
2022-11-28T09:10:20.743Z,18.02
2022-11-28T09:13:08.588Z,15.52
2022-11-28T09:15:55.875Z,13.80
2022-11-28T09:18:44.790Z,16.25
2022-11-28T09:21:32.123Z,14.13
2022-11-28T09:24:19.330Z,12.18
2022-11-28T09:27:06.688Z,17.23
2022-11-28T09:29:53.892Z,15.63
2022-11-28T09:32:41.209Z,17.52
2022-11-28T09:35:29.898Z,13.15
2022-11-28T09:38:17.227Z,15.35
2022-11-28T09:41:05.156Z,13.23
2022-11-28T09:43:54.986Z,14.18
2022-11-28T09:46:43.043Z,17.10
2022-11-28T09:49:38.471Z,17.08
2022-11-28T09:52:30.656Z,15.80
2022-11-28T09:55:20.196Z,16.60
2022-11-28T09:58:11.552Z,15.85
2022-11-28T10:01:03.407Z,15.82
2022-11-28T10:03:53.158Z,17.55
2022-11-28T10:06:43.725Z,12.25
2022-11-28T10:09:38.471Z,14.75
2022-11-28T10:12:33.381Z,14.52
2022-11-28T10:15:23.891Z,15.30
2022-11-28T10:18:16.484Z,13.18
2022-11-28T10:21:05.331Z,13.60
2022-11-28T10:23:54.260Z,16.75
2022-11-28T10:26:43.980Z,16.33
2022-11-28T10:29:34.144Z,16.60
2022-11-28T10:32:22.824Z,13.93
2022-11-28T10:35:17.953Z,18.27
2022-11-28T10:38:07.874Z,16.35
2022-11-28T10:40:59.241Z,14.30
2022-11-28T10:43:49.931Z,15.20
2022-11-28T10:46:44.516Z,18.02
2022-11-28T10:49:37.049Z,16.60
2022-11-28T10:52:27.687Z,12.10
2022-11-28T10:55:27.310Z,15.38
2022-11-28T10:58:19.781Z,21.05
2022-11-28T11:01:08.315Z,16.15
2022-11-28T11:03:55.527Z,15.80
2022-11-28T11:07:06.863Z,15.80
2022-11-28T11:09:49.883Z,16.25
2022-11-28T11:12:37.219Z,15.98
2022-11-28T11:15:26.124Z,16.58
2022-11-28T11:18:23.563Z,16.50
2022-11-28T11:21:15.472Z,17.75
2022-11-28T11:24:12.578Z,19.17
2022-11-28T11:27:07.615Z,20.17
2022-11-28T11:29:55.339Z,19.00
2022-11-28T11:32:42.365Z,19.20
2022-11-28T11:35:33.020Z,20.65
2022-11-28T11:38:30.321Z,21.40
2022-11-28T11:41:25.841Z,21.50
2022-11-28T11:44:29.222Z,14.32
2022-11-28T11:47:16.226Z,19.10
2022-11-28T11:50:05.594Z,19.20
2022-11-28T11:53:03.599Z,19.80
2022-11-28T11:55:52.799Z,15.90
2022-11-28T11:58:42.598Z,18.38
2022-11-28T12:01:31.785Z,18.83
2022-11-28T12:04:44.517Z,20.20
2022-11-28T12:07:33.253Z,15.05
2022-11-28T12:10:23.686Z,14.02
2022-11-28T12:13:15.026Z,15.73
2022-11-28T12:16:06.831Z,22.48
2022-11-28T12:19:00.843Z,19.77
2022-11-28T12:22:01.716Z,17.63
2022-11-28T12:24:54.196Z,17.48
2022-11-28T12:27:49.732Z,18.85
2022-11-28T12:30:46.634Z,17.35
2022-11-28T12:33:40.356Z,21.02
2022-11-28T12:36:30.234Z,17.90
2022-11-28T12:39:18.968Z,19.65
2022-11-28T12:42:20.480Z,15.93
2022-11-28T12:45:20.532Z,14.73
2022-11-28T12:48:18.429Z,14.13
2022-11-28T12:51:12.539Z,15.52
2022-11-28T12:54:06.170Z,12.85
2022-11-28T12:56:56.035Z,19.83
2022-11-28T12:59:47.806Z,16.45
2022-11-28T13:02:40.374Z,16.27
2022-11-28T13:05:35.158Z,14.95
2022-11-28T13:08:31.351Z,13.77
2022-11-28T13:11:25.576Z,19.23
2022-11-28T13:14:17.367Z,15.57
2022-11-28T13:17:10.103Z,15.07
2022-11-28T13:20:03.018Z,11.90
2022-11-28T13:22:54.695Z,14.52
2022-11-28T13:25:45.771Z,14.98
2022-11-28T13:28:35.899Z,14.45
2022-11-28T13:31:25.381Z,17.77
2022-11-28T13:34:14.256Z,14.35
2022-11-28T13:40:18.391Z,14.70
2022-11-28T13:43:08.581Z,14.15
2022-11-28T13:45:56.819Z,14.20
2022-11-28T13:49:15.572Z,14.07
2022-11-28T13:52:24.017Z,15.55
2022-11-28T13:55:26.084Z,15.60
2022-11-28T13:58:18.684Z,11.65
2022-11-28T14:01:08.048Z,12.52
2022-11-28T14:04:05.672Z,15.48
2022-11-28T14:06:54.627Z,12.88
2022-11-28T14:09:47.862Z,11.93
2022-11-28T14:12:39.277Z,14.00
2022-11-28T14:15:30.995Z,11.50
2022-11-28T14:18:55.124Z,14.63
2022-11-28T14:21:35.476Z,11.50
2022-11-28T14:24:27.736Z,13.18
2022-11-28T14:27:19.379Z,11.43
2022-11-28T14:30:07.023Z,12.20
2022-11-28T14:32:58.300Z,11.88
2022-11-28T14:36:03.486Z,11.07
2022-11-28T14:39:01.967Z,10.95
2022-11-28T14:42:08.139Z,9.00
2022-11-28T14:44:56.985Z,10.68
2022-11-28T14:48:05.865Z,7.93
2022-11-28T14:51:00.979Z,8.38
2022-11-28T14:53:50.207Z,8.65
2022-11-28T14:56:37.431Z,8.68
2022-11-28T14:59:28.192Z,6.53
2022-11-28T15:02:22.739Z,7.38
2022-11-28T15:05:20.840Z,7.28
2022-11-28T15:08:23.892Z,8.20
2022-11-28T15:11:17.520Z,8.40
2022-11-28T15:14:15.387Z,7.68
2022-11-28T15:17:04.437Z,8.35
2022-11-28T15:19:52.494Z,9.20
2022-11-28T15:22:41.073Z,8.80
2022-11-28T15:25:35.716Z,10.25
2022-11-28T15:28:25.458Z,9.45
2022-11-28T15:31:21.563Z,10.70
2022-11-28T15:34:09.739Z,9.13
2022-11-28T15:36:58.294Z,8.20
2022-11-28T15:39:47.251Z,9.00
2022-11-28T15:42:37.984Z,11.15
2022-11-28T15:45:26.875Z,11.93
2022-11-28T15:48:26.864Z,12.00
2022-11-28T15:51:29.952Z,13.68
2022-11-28T15:54:26.867Z,13.68
2022-11-28T15:57:19.586Z,16.65
2022-11-28T16:00:13.464Z,18.17
2022-11-28T16:03:01.802Z,20.65
2022-11-28T16:05:50.022Z,22.20
2022-11-28T16:08:38.013Z,27.65
2022-11-28T16:11:26.579Z,26.45
2022-11-28T16:14:17.516Z,23.13
2022-11-28T16:17:10.542Z,22.80
2022-11-28T16:19:58.071Z,21.75
2022-11-28T16:22:45.378Z,23.25
2022-11-28T16:25:32.661Z,20.63
2022-11-28T16:28:33.919Z,22.38
2022-11-28T16:31:23.803Z,17.63
2022-11-28T16:34:15.305Z,48.70
2022-11-28T16:37:02.715Z,18.08
2022-11-28T16:39:59.659Z,32.55
2022-11-28T16:42:53.383Z,23.05
2022-11-28T16:45:40.743Z,27.92
2022-11-28T16:48:29.758Z,20.40
2022-11-28T16:51:37.941Z,29.63
2022-11-28T16:54:30.135Z,33.97
2022-11-28T16:57:17.303Z,37.13
2022-11-28T17:00:04.824Z,32.30
2022-11-28T17:02:52.903Z,39.83
2022-11-28T17:05:40.451Z,32.80
2022-11-28T17:08:30.521Z,36.13
2022-11-28T17:11:19.290Z,41.53
2022-11-28T17:14:13.039Z,33.88
2022-11-28T17:17:03.570Z,30.88
2022-11-28T17:19:50.788Z,32.30
2022-11-28T17:22:41.272Z,30.63
2022-11-28T17:25:30.312Z,31.00
2022-11-28T17:28:21.643Z,40.25
2022-11-28T17:31:11.288Z,37.55
2022-11-28T17:33:58.434Z,37.45
2022-11-28T17:36:45.650Z,31.88
2022-11-28T17:39:32.905Z,36.70
2022-11-28T17:42:21.689Z,36.10
2022-11-28T17:45:12.743Z,30.60
2022-11-28T17:47:59.768Z,33.75
2022-11-28T17:50:47.987Z,31.33
2022-11-28T17:53:35.002Z,38.17
2022-11-28T17:56:22.327Z,38.33
2022-11-28T17:59:12.535Z,32.22
2022-11-28T18:02:00.004Z,29.63
2022-11-28T18:04:47.439Z,28.30
2022-11-28T18:07:34.564Z,32.53
2022-11-28T18:10:21.622Z,30.88
2022-11-28T18:13:09.563Z,30.88
2022-11-28T18:15:58.256Z,51.13
2022-11-28T18:18:45.703Z,31.33
2022-11-28T18:21:33.272Z,32.53
2022-11-28T18:24:20.731Z,29.85
2022-11-28T18:27:08.111Z,31.73
2022-11-28T18:29:55.302Z,30.05
2022-11-28T18:32:44.604Z,36.38
2022-11-28T18:35:31.779Z,37.72
2022-11-28T18:38:19.295Z,35.67
2022-11-28T18:41:07.315Z,35.75
2022-11-28T18:43:55.807Z,41.00
2022-11-28T18:46:42.727Z,38.25
2022-11-28T18:49:31.298Z,35.40
2022-11-28T18:52:18.631Z,38.95
2022-11-28T18:55:06.144Z,44.13
2022-11-28T18:57:53.227Z,42.60
2022-11-28T19:00:40.358Z,39.65
2022-11-28T19:03:27.669Z,43.17
2022-11-28T19:06:16.308Z,35.95
2022-11-28T19:09:04.916Z,42.00
2022-11-28T19:11:52.033Z,38.15
2022-11-28T19:14:39.522Z,38.25
2022-11-28T19:17:26.847Z,30.77
2022-11-28T19:20:14.217Z,40.20
2022-11-28T19:23:03.017Z,35.35
2022-11-28T19:25:50.044Z,29.52
2022-11-28T19:28:38.291Z,34.53
2022-11-28T19:31:27.382Z,28.05
2022-11-28T19:34:15.094Z,35.22
2022-11-28T19:37:01.912Z,28.75
2022-11-28T19:39:50.797Z,30.67
2022-11-28T19:42:38.228Z,29.95
2022-11-28T19:45:25.402Z,28.83
2022-11-28T19:48:12.685Z,30.25
2022-11-28T19:51:00.307Z,36.85
2022-11-28T19:53:47.896Z,34.47
2022-11-28T19:56:36.139Z,32.42
2022-11-28T19:59:23.427Z,37.10
2022-11-28T20:02:11.014Z,38.50
2022-11-28T20:04:57.887Z,42.47
2022-11-28T20:07:45.301Z,46.03
2022-11-28T20:10:32.527Z,48.83
2022-11-28T20:13:21.141Z,48.28
2022-11-28T20:16:09.952Z,36.85
2022-11-28T20:18:57.191Z,39.13
2022-11-28T20:21:44.547Z,40.38
2022-11-28T20:24:31.895Z,40.30
2022-11-28T20:27:19.034Z,46.03
2022-11-28T20:30:08.897Z,40.35
2022-11-28T20:32:56.081Z,41.58
2022-11-28T20:35:43.190Z,42.67
2022-11-28T20:38:30.401Z,40.78
2022-11-28T20:41:18.878Z,34.58
2022-11-28T20:44:06.402Z,39.70
2022-11-28T20:46:54.997Z,39.95
2022-11-28T20:49:42.567Z,41.17
2022-11-28T20:52:30.118Z,36.47
2022-11-28T20:55:17.563Z,38.53
2022-11-28T20:58:04.817Z,35.63
2022-11-28T21:00:52.103Z,38.28
2022-11-28T21:03:40.619Z,41.42
2022-11-28T21:06:27.927Z,36.30
2022-11-28T21:09:15.828Z,41.35
2022-11-28T21:12:03.347Z,38.50
2022-11-28T21:14:52.003Z,38.88
2022-11-28T21:17:39.452Z,36.90
2022-11-28T21:20:28.135Z,41.08
2022-11-28T21:23:16.745Z,35.58
2022-11-28T21:26:07.464Z,39.28
2022-11-28T21:28:55.736Z,35.63
2022-11-28T21:31:44.398Z,39.05
2022-11-28T21:34:31.723Z,35.80
2022-11-28T21:37:20.394Z,44.00
2022-11-28T21:40:08.482Z,30.63
2022-11-28T21:42:55.475Z,37.85
2022-11-28T21:45:42.734Z,38.83
2022-11-28T21:48:30.247Z,37.08
2022-11-28T21:51:18.366Z,39.35
2022-11-28T21:54:07.062Z,36.40
2022-11-28T21:56:54.076Z,31.55
2022-11-28T21:59:41.464Z,38.22
2022-11-28T22:02:30.908Z,38.45
2022-11-28T22:05:18.583Z,41.97
2022-11-28T22:08:05.883Z,38.25
2022-11-28T22:10:54.703Z,40.78
2022-11-28T22:13:42.535Z,46.90
2022-11-28T22:16:30.409Z,40.75
2022-11-28T22:19:17.769Z,52.28
2022-11-28T22:22:05.130Z,53.55
2022-11-28T22:24:52.513Z,44.03
2022-11-28T22:27:41.104Z,46.47
2022-11-28T22:30:28.438Z,40.33
2022-11-28T22:33:15.683Z,43.08
2022-11-28T22:36:06.895Z,41.33
2022-11-28T22:38:55.611Z,39.38
2022-11-28T22:41:42.843Z,39.58
2022-11-28T22:44:31.490Z,38.75
2022-11-28T22:47:18.846Z,43.95
2022-11-28T22:50:06.779Z,42.30
2022-11-28T22:52:54.251Z,41.25
2022-11-28T22:55:41.654Z,38.40
2022-11-28T22:58:29.028Z,37.60
2022-11-28T23:01:18.350Z,41.10
2022-11-28T23:04:05.289Z,33.45
2022-11-28T23:06:52.651Z,37.63
2022-11-28T23:09:40.201Z,32.70
2022-11-28T23:12:27.100Z,46.45
2022-11-28T23:15:14.358Z,34.15
2022-11-28T23:18:02.994Z,38.78
2022-11-28T23:20:50.195Z,48.72
2022-11-28T23:23:37.722Z,44.67
2022-11-28T23:26:26.279Z,39.92
2022-11-28T23:29:13.344Z,46.33
2022-11-28T23:32:00.617Z,48.97
2022-11-28T23:34:49.051Z,52.90
2022-11-28T23:37:38.120Z,58.05
2022-11-28T23:40:25.270Z,55.00
2022-11-28T23:43:12.464Z,54.28
2022-11-28T23:45:59.861Z,60.00
2022-11-28T23:48:47.226Z,60.05
2022-11-28T23:51:35.625Z,56.55
2022-11-28T23:54:22.934Z,55.70
2022-11-28T23:57:10.241Z,50.42
2022-11-28T23:59:57.459Z,58.58
